createdAt,value
2018-05-01T00:00:06.604Z,0.00
2018-05-01T00:01:06.596Z,0.00
2018-05-01T00:02:06.573Z,0.00
2018-05-01T00:03:06.561Z,0.00
2018-05-01T00:04:06.546Z,0.00
2018-05-01T00:05:06.533Z,0.00
2018-05-01T00:06:06.530Z,0.00
2018-05-01T00:07:06.511Z,0.00
2018-05-01T00:08:06.493Z,0.00
2018-05-01T00:09:06.480Z,0.00
2018-05-01T00:10:06.467Z,0.00
2018-05-01T00:11:06.469Z,0.00
2018-05-01T00:12:06.441Z,0.00
2018-05-01T00:13:06.427Z,0.00
2018-05-01T00:14:06.413Z,0.00
2018-05-01T00:15:06.402Z,0.00
2018-05-01T00:16:06.387Z,0.00
2018-05-01T00:17:06.383Z,0.00
2018-05-01T00:18:06.359Z,0.00
2018-05-01T00:19:06.349Z,0.00
2018-05-01T00:20:06.334Z,0.00
2018-05-01T00:21:06.321Z,0.00
2018-05-01T00:22:06.324Z,0.00
2018-05-01T00:23:06.294Z,0.00
2018-05-01T00:24:06.281Z,0.00
2018-05-01T00:25:06.266Z,0.00
2018-05-01T00:26:06.254Z,0.00
2018-05-01T00:27:06.240Z,0.00
2018-05-01T00:28:06.240Z,0.00
2018-05-01T00:29:06.215Z,0.00
2018-05-01T00:30:06.201Z,0.00
2018-05-01T00:31:06.186Z,0.00
2018-05-01T00:32:06.175Z,0.00
2018-05-01T00:33:06.177Z,0.00
2018-05-01T00:34:06.147Z,0.00
2018-05-01T00:35:06.132Z,0.00
2018-05-01T00:36:06.120Z,0.00
2018-05-01T00:37:06.106Z,0.00
2018-05-01T00:38:06.092Z,0.00
2018-05-01T00:39:06.092Z,0.00
2018-05-01T00:40:06.066Z,0.00
2018-05-01T00:41:06.051Z,0.00
2018-05-01T00:42:06.040Z,0.00
2018-05-01T00:43:06.025Z,0.00
2018-05-01T00:44:06.029Z,0.00
2018-05-01T00:45:05.999Z,0.00
2018-05-01T00:46:05.985Z,0.00
2018-05-01T00:47:05.973Z,0.00
2018-05-01T00:48:05.958Z,0.00
2018-05-01T00:49:05.949Z,0.00
2018-05-01T00:50:05.941Z,0.00
2018-05-01T00:51:05.918Z,0.00
2018-05-01T00:52:05.905Z,0.00
2018-05-01T00:53:05.892Z,0.00
2018-05-01T00:54:05.878Z,0.00
2018-05-01T00:55:05.874Z,0.00
2018-05-01T00:56:05.852Z,0.00
2018-05-01T00:57:05.837Z,0.00
2018-05-01T00:58:05.826Z,0.00
2018-05-01T00:59:05.811Z,0.00
2018-05-01T01:00:05.813Z,0.00
2018-05-01T01:01:05.783Z,0.00
2018-05-01T01:02:05.771Z,0.00
2018-05-01T01:03:05.758Z,0.00
2018-05-01T01:04:05.744Z,0.00
2018-05-01T01:05:05.731Z,0.00
2018-05-01T01:06:05.726Z,0.00
2018-05-01T01:07:05.705Z,0.00
2018-05-01T01:08:05.690Z,0.00
2018-05-01T01:09:05.676Z,0.00
2018-05-01T01:10:05.663Z,0.00
2018-05-01T01:11:05.661Z,0.00
2018-05-01T01:12:05.638Z,0.00
2018-05-01T01:13:05.623Z,0.00
2018-05-01T01:14:05.611Z,0.00
2018-05-01T01:15:05.600Z,0.00
2018-05-01T01:16:05.854Z,0.00
2018-05-01T01:17:05.569Z,0.00
2018-05-01T01:18:05.557Z,0.00
2018-05-01T01:19:05.542Z,0.00
2018-05-01T01:20:05.530Z,0.00
2018-05-01T01:21:05.515Z,0.00
2018-05-01T01:22:05.512Z,0.00
2018-05-01T01:23:05.489Z,0.00
2018-05-01T01:24:05.475Z,0.00
2018-05-01T01:25:05.465Z,0.00
2018-05-01T01:26:05.449Z,0.00
2018-05-01T01:27:05.470Z,0.00
2018-05-01T01:28:05.422Z,0.00
2018-05-01T01:29:05.409Z,0.00
2018-05-01T01:30:05.395Z,0.00
2018-05-01T01:31:05.382Z,0.00
2018-05-01T01:32:05.371Z,0.00
2018-05-01T01:33:05.364Z,0.00
2018-05-01T01:34:05.341Z,0.00
2018-05-01T01:35:05.329Z,0.00
2018-05-01T01:36:05.316Z,0.00
2018-05-01T01:37:05.301Z,0.00
2018-05-01T01:38:05.302Z,0.00
2018-05-01T01:39:05.278Z,0.00
2018-05-01T01:40:05.262Z,0.00
2018-05-01T01:41:05.247Z,0.00
2018-05-01T01:42:05.236Z,0.00
2018-05-01T01:43:05.224Z,0.00
2018-05-01T01:44:05.218Z,0.00
2018-05-01T01:45:05.194Z,0.00
2018-05-01T01:46:05.181Z,0.00
2018-05-01T01:47:05.168Z,0.00
2018-05-01T01:48:05.155Z,0.00
2018-05-01T01:49:05.154Z,0.00
2018-05-01T01:50:05.127Z,0.00
2018-05-01T01:51:05.116Z,0.00
2018-05-01T01:52:05.101Z,0.00
2018-05-01T01:53:05.087Z,0.00
2018-05-01T01:54:05.074Z,0.00
2018-05-01T01:55:05.071Z,0.00
2018-05-01T01:56:05.047Z,0.00
2018-05-01T01:57:05.033Z,0.00
2018-05-01T01:58:05.019Z,0.00
2018-05-01T01:59:05.008Z,0.00
2018-05-01T02:00:05.004Z,0.00
2018-05-01T02:01:04.979Z,0.00
2018-05-01T02:02:04.968Z,0.00
2018-05-01T02:03:04.953Z,0.00
2018-05-01T02:04:04.939Z,0.00
2018-05-01T02:05:04.940Z,0.00
2018-05-01T02:06:04.915Z,0.00
2018-05-01T02:07:04.900Z,0.00
2018-05-01T02:08:04.885Z,0.00
2018-05-01T02:09:04.871Z,0.00
2018-05-01T02:10:04.862Z,0.00
2018-05-01T02:11:04.856Z,0.00
2018-05-01T02:12:04.833Z,0.00
2018-05-01T02:13:04.818Z,0.00
2018-05-01T02:14:04.806Z,0.00
2018-05-01T02:15:04.792Z,0.00
2018-05-01T02:16:04.812Z,0.00
2018-05-01T02:17:04.768Z,0.00
2018-05-01T02:18:04.750Z,0.00
2018-05-01T02:19:04.738Z,0.00
2018-05-01T02:20:04.724Z,0.00
2018-05-01T02:21:04.711Z,0.00
2018-05-01T02:22:04.708Z,0.00
2018-05-01T02:23:04.684Z,0.00
2018-05-01T02:24:04.671Z,0.00
2018-05-01T02:25:04.657Z,0.00
2018-05-01T02:26:04.644Z,0.00
2018-05-01T02:27:04.644Z,0.00
2018-05-01T02:28:04.617Z,0.00
2018-05-01T02:29:04.606Z,0.00
2018-05-01T02:30:04.595Z,0.00
2018-05-01T02:31:04.606Z,0.00
2018-05-01T02:32:04.570Z,0.00
2018-05-01T02:33:04.560Z,0.00
2018-05-01T02:34:04.537Z,0.00
2018-05-01T02:35:04.524Z,0.00
2018-05-01T02:36:04.510Z,0.00
2018-05-01T02:37:04.495Z,0.00
2018-05-01T02:38:04.492Z,0.00
2018-05-01T02:39:04.469Z,0.00
2018-05-01T02:40:04.460Z,0.00
2018-05-01T02:41:04.446Z,0.00
2018-05-01T02:42:04.429Z,0.00
2018-05-01T02:43:04.443Z,0.00
2018-05-01T02:44:04.403Z,0.00
2018-05-01T02:45:04.397Z,0.00
2018-05-01T02:46:04.375Z,0.00
2018-05-01T02:47:04.361Z,0.00
2018-05-01T02:48:04.349Z,0.00
2018-05-01T02:49:04.344Z,0.00
2018-05-01T02:50:04.321Z,0.00
2018-05-01T02:51:04.307Z,0.00
2018-05-01T02:52:04.294Z,0.00
2018-05-01T02:53:04.280Z,0.00
2018-05-01T02:54:04.280Z,0.00
2018-05-01T02:55:04.262Z,0.00
2018-05-01T02:56:04.247Z,0.00
2018-05-01T02:57:04.228Z,0.00
2018-05-01T02:58:04.216Z,0.00
2018-05-01T02:59:04.199Z,0.00
2018-05-01T03:00:04.197Z,0.00
2018-05-01T03:01:04.176Z,0.00
2018-05-01T03:02:04.162Z,0.00
2018-05-01T03:03:04.147Z,0.00
2018-05-01T03:04:04.137Z,0.00
2018-05-01T03:05:04.136Z,0.00
2018-05-01T03:06:04.107Z,0.00
2018-05-01T03:07:04.093Z,0.00
2018-05-01T03:08:04.083Z,0.00
2018-05-01T03:09:04.065Z,0.00
2018-05-01T03:10:04.052Z,0.00
2018-05-01T03:11:04.154Z,0.00
2018-05-01T03:12:04.026Z,0.00
2018-05-01T03:13:04.012Z,0.00
2018-05-01T03:14:03.998Z,0.00
2018-05-01T03:15:03.984Z,0.00
2018-05-01T03:16:03.987Z,0.00
2018-05-01T03:17:03.959Z,0.00
2018-05-01T03:18:03.945Z,0.00
2018-05-01T03:19:03.931Z,0.00
2018-05-01T03:20:03.917Z,0.00
2018-05-01T03:21:03.903Z,0.00
2018-05-01T03:22:03.902Z,0.00
2018-05-01T03:23:03.877Z,0.00
2018-05-01T03:24:03.864Z,0.00
2018-05-01T03:25:03.849Z,0.00
2018-05-01T03:26:03.836Z,0.00
2018-05-01T03:27:03.838Z,0.00
2018-05-01T03:28:03.810Z,0.00
2018-05-01T03:29:03.796Z,0.00
2018-05-01T03:30:03.783Z,0.00
2018-05-01T03:31:03.771Z,0.00
2018-05-01T03:32:03.756Z,0.00
2018-05-01T03:33:03.751Z,0.00
2018-05-01T03:34:03.732Z,0.00
2018-05-01T03:35:03.716Z,0.00
2018-05-01T03:36:03.702Z,0.00
2018-05-01T03:37:03.688Z,0.00
2018-05-01T03:38:03.689Z,0.00
2018-05-01T03:39:03.751Z,0.00
2018-05-01T03:40:03.648Z,0.00
2018-05-01T03:41:03.634Z,0.00
2018-05-01T03:42:03.622Z,0.00
2018-05-01T03:43:03.608Z,0.00
2018-05-01T03:44:03.607Z,0.00
2018-05-01T03:45:03.580Z,0.00
2018-05-01T03:46:03.569Z,0.00
2018-05-01T03:47:03.555Z,0.00
2018-05-01T03:48:03.541Z,0.00
2018-05-01T03:49:03.536Z,0.00
2018-05-01T03:50:03.511Z,0.00
2018-05-01T03:51:03.500Z,0.00
2018-05-01T03:52:03.485Z,0.00
2018-05-01T03:53:03.472Z,0.00
2018-05-01T03:54:03.494Z,0.00
2018-05-01T03:55:03.445Z,0.00
2018-05-01T03:56:03.526Z,0.00
2018-05-01T03:57:03.417Z,0.00
2018-05-01T03:58:03.404Z,0.00
2018-05-01T03:59:03.391Z,0.00
2018-05-01T04:00:03.388Z,0.00
2018-05-01T04:01:03.364Z,0.00
2018-05-01T04:02:03.352Z,0.00
2018-05-01T04:03:03.337Z,0.00
2018-05-01T04:04:03.325Z,0.00
2018-05-01T04:05:03.324Z,0.00
2018-05-01T04:06:03.296Z,0.00
2018-05-01T04:07:03.283Z,0.00
2018-05-01T04:08:03.270Z,0.00
2018-05-01T04:09:03.258Z,0.00
2018-05-01T04:10:03.242Z,0.00
2018-05-01T04:11:03.237Z,0.00
2018-05-01T04:12:03.216Z,0.00
2018-05-01T04:13:03.203Z,0.00
2018-05-01T04:14:03.189Z,0.00
2018-05-01T04:15:03.174Z,0.00
2018-05-01T04:16:03.172Z,0.00
2018-05-01T04:17:03.148Z,0.00
2018-05-01T04:18:03.135Z,0.00
2018-05-01T04:19:03.123Z,0.00
2018-05-01T04:20:03.110Z,0.00
2018-05-01T04:21:03.354Z,0.00
2018-05-01T04:22:03.083Z,0.00
2018-05-01T04:23:03.068Z,0.00
2018-05-01T04:24:03.061Z,0.00
2018-05-01T04:25:03.045Z,0.00
2018-05-01T04:26:03.025Z,0.00
2018-05-01T04:27:03.025Z,0.00
2018-05-01T04:28:03.000Z,0.00
2018-05-01T04:29:02.989Z,0.00
2018-05-01T04:30:02.974Z,0.00
2018-05-01T04:31:02.958Z,0.00
2018-05-01T04:32:02.969Z,0.00
2018-05-01T04:33:02.932Z,0.00
2018-05-01T04:34:02.922Z,0.00
2018-05-01T04:35:02.905Z,0.00
2018-05-01T04:36:02.891Z,0.00
2018-05-01T04:37:02.878Z,0.00
2018-05-01T04:38:02.876Z,0.00
2018-05-01T04:39:02.854Z,0.00
2018-05-01T04:40:02.838Z,0.00
2018-05-01T04:41:02.828Z,0.00
2018-05-01T04:42:02.812Z,0.00
2018-05-01T04:43:02.813Z,0.00
2018-05-01T04:44:02.787Z,0.00
2018-05-01T04:45:02.769Z,0.00
2018-05-01T04:46:02.757Z,0.00
2018-05-01T04:47:02.744Z,0.00
2018-05-01T04:48:02.730Z,0.00
2018-05-01T04:49:02.726Z,0.00
2018-05-01T04:50:02.702Z,0.00
2018-05-01T04:51:02.690Z,0.00
2018-05-01T04:52:02.676Z,0.00
2018-05-01T04:53:02.662Z,0.00
2018-05-01T04:54:02.662Z,0.00
2018-05-01T04:55:02.636Z,0.00
2018-05-01T04:56:02.622Z,40.00
2018-05-01T04:57:02.609Z,40.00
2018-05-01T04:58:02.594Z,52.00
2018-05-01T04:59:02.581Z,48.00
2018-05-01T05:00:02.581Z,48.00
2018-05-01T05:01:02.553Z,48.00
2018-05-01T05:02:02.542Z,48.00
2018-05-01T05:03:02.527Z,48.00
2018-05-01T05:04:02.514Z,48.00
2018-05-01T05:05:02.513Z,48.00
2018-05-01T05:06:02.490Z,52.00
2018-05-01T05:07:02.473Z,52.00
2018-05-01T05:08:02.461Z,60.00
2018-05-01T05:09:02.448Z,48.00
2018-05-01T05:10:02.433Z,48.00
2018-05-01T05:11:02.429Z,48.00
2018-05-01T05:12:02.409Z,60.00
2018-05-01T05:13:02.392Z,60.00
2018-05-01T05:14:02.383Z,60.00
2018-05-01T05:15:02.366Z,60.00
2018-05-01T05:16:02.364Z,60.00
2018-05-01T05:17:02.338Z,60.00
2018-05-01T05:18:02.331Z,60.00
2018-05-01T05:19:02.317Z,60.00
2018-05-01T05:20:02.298Z,60.00
2018-05-01T05:21:02.555Z,60.00
2018-05-01T05:22:02.271Z,60.00
2018-05-01T05:23:02.259Z,64.00
2018-05-01T05:24:02.245Z,60.00
2018-05-01T05:25:02.231Z,60.00
2018-05-01T05:26:02.216Z,64.00
2018-05-01T05:27:02.213Z,60.00
2018-05-01T05:28:02.190Z,64.00
2018-05-01T05:29:02.176Z,60.00
2018-05-01T05:30:02.167Z,60.00
2018-05-01T05:31:02.148Z,60.00
2018-05-01T05:32:02.148Z,60.00
2018-05-01T05:33:02.121Z,60.00
2018-05-01T05:34:02.108Z,64.00
2018-05-01T05:35:02.098Z,64.00
2018-05-01T05:36:02.082Z,64.00
2018-05-01T05:37:02.067Z,64.00
2018-05-01T05:38:02.063Z,68.00
2018-05-01T05:39:02.041Z,64.00
2018-05-01T05:40:02.028Z,68.00
2018-05-01T05:41:02.018Z,68.00
2018-05-01T05:42:02.000Z,68.00
2018-05-01T05:43:01.997Z,72.00
2018-05-01T05:44:01.977Z,68.00
2018-05-01T05:45:01.960Z,72.00
2018-05-01T05:46:01.948Z,72.00
2018-05-01T05:47:01.932Z,72.00
2018-05-01T05:48:01.932Z,72.00
2018-05-01T05:49:01.905Z,76.00
2018-05-01T05:50:01.891Z,80.00
2018-05-01T05:51:01.879Z,80.00
2018-05-01T05:52:01.865Z,88.00
2018-05-01T05:53:01.851Z,92.00
2018-05-01T05:54:01.847Z,96.00
2018-05-01T05:55:01.824Z,100.00
2018-05-01T05:56:01.810Z,108.00
2018-05-01T05:57:01.796Z,112.00
2018-05-01T05:58:01.785Z,120.00
2018-05-01T05:59:01.784Z,124.00
2018-05-01T06:00:01.759Z,128.00
2018-05-01T06:01:01.744Z,140.00
2018-05-01T06:02:01.729Z,144.00
2018-05-01T06:03:01.718Z,148.00
2018-05-01T06:04:01.703Z,152.00
2018-05-01T06:05:01.701Z,156.00
2018-05-01T06:06:01.675Z,164.00
2018-05-01T06:07:01.662Z,164.00
2018-05-01T06:08:01.647Z,168.00
2018-05-01T06:09:01.634Z,172.00
2018-05-01T06:10:01.631Z,184.00
2018-05-01T06:11:01.610Z,192.00
2018-05-01T06:12:01.593Z,180.00
2018-05-01T06:13:01.580Z,184.00
2018-05-01T06:14:01.567Z,184.00
2018-05-01T06:15:01.567Z,196.00
2018-05-01T06:16:01.540Z,196.00
2018-05-01T06:17:01.526Z,200.00
2018-05-01T06:18:01.512Z,200.00
2018-05-01T06:19:01.500Z,204.00
2018-05-01T06:20:01.487Z,204.00
2018-05-01T06:21:01.491Z,196.00
2018-05-01T06:22:01.561Z,192.00
2018-05-01T06:23:01.444Z,188.00
2018-05-01T06:24:01.431Z,188.00
2018-05-01T06:25:01.418Z,184.00
2018-05-01T06:26:01.405Z,180.00
2018-05-01T06:27:01.399Z,176.00
2018-05-01T06:28:01.376Z,176.00
2018-05-01T06:29:01.364Z,276.00
2018-05-01T06:30:01.353Z,276.00
2018-05-01T06:31:01.346Z,280.00
2018-05-01T06:32:01.346Z,288.00
2018-05-01T06:33:01.309Z,296.00
2018-05-01T06:34:01.295Z,296.00
2018-05-01T06:35:01.281Z,296.00
2018-05-01T06:36:01.269Z,304.00
2018-05-01T06:37:01.254Z,316.00
2018-05-01T06:38:01.250Z,336.00
2018-05-01T06:39:01.228Z,352.00
2018-05-01T06:40:01.217Z,348.00
2018-05-01T06:41:01.202Z,352.00
2018-05-01T06:42:01.185Z,348.00
2018-05-01T06:43:01.189Z,336.00
2018-05-01T06:44:01.188Z,328.00
2018-05-01T06:45:01.145Z,348.00
2018-05-01T06:46:01.133Z,360.00
2018-05-01T06:47:01.119Z,364.00
2018-05-01T06:48:01.105Z,368.00
2018-05-01T06:49:01.104Z,360.00
2018-05-01T06:50:01.078Z,372.00
2018-05-01T06:51:01.065Z,356.00
2018-05-01T06:52:01.052Z,368.00
2018-05-01T06:53:01.037Z,384.00
2018-05-01T06:54:01.041Z,376.00
2018-05-01T06:55:01.011Z,372.00
2018-05-01T06:56:00.999Z,376.00
2018-05-01T06:57:00.982Z,376.00
2018-05-01T06:58:00.970Z,388.00
2018-05-01T06:59:00.958Z,380.00
2018-05-01T07:00:00.957Z,384.00
2018-05-01T07:01:00.929Z,388.00
2018-05-01T07:02:00.915Z,400.00
2018-05-01T07:03:00.902Z,420.00
2018-05-01T07:04:00.891Z,436.00
2018-05-01T07:05:00.875Z,456.00
2018-05-01T07:06:00.871Z,480.00
2018-05-01T07:07:00.849Z,496.00
2018-05-01T07:08:00.834Z,504.00
2018-05-01T07:09:00.821Z,524.00
2018-05-01T07:10:00.808Z,548.00
2018-05-01T07:11:00.807Z,572.00
2018-05-01T07:12:00.781Z,584.00
2018-05-01T07:13:00.767Z,580.00
2018-05-01T07:14:00.753Z,596.00
2018-05-01T07:15:00.740Z,600.00
2018-05-01T07:16:00.726Z,620.00
2018-05-01T07:17:00.729Z,644.00
2018-05-01T07:18:00.699Z,644.00
2018-05-01T07:19:00.683Z,640.00
2018-05-01T07:20:00.672Z,620.00
2018-05-01T07:21:00.660Z,616.00
2018-05-01T07:22:00.660Z,592.00
2018-05-01T07:23:00.632Z,580.00
2018-05-01T07:24:00.620Z,576.00
2018-05-01T07:25:00.605Z,568.00
2018-05-01T07:26:00.589Z,576.00
2018-05-01T07:27:00.578Z,588.00
2018-05-01T07:28:00.576Z,584.00
2018-05-01T07:29:00.549Z,580.00
2018-05-01T07:30:00.573Z,592.00
2018-05-01T07:31:00.524Z,620.00
2018-05-01T07:32:00.511Z,628.00
2018-05-01T07:33:00.505Z,628.00
2018-05-01T07:34:00.485Z,636.00
2018-05-01T07:35:00.468Z,640.00
2018-05-01T07:36:00.457Z,648.00
2018-05-01T07:37:00.441Z,624.00
2018-05-01T07:38:00.438Z,592.00
2018-05-01T07:39:00.415Z,612.00
2018-05-01T07:40:00.404Z,608.00
2018-05-01T07:41:00.393Z,616.00
2018-05-01T07:42:00.375Z,624.00
2018-05-01T07:43:00.377Z,616.00
2018-05-01T07:44:00.348Z,612.00
2018-05-01T07:45:00.337Z,604.00
2018-05-01T07:46:00.322Z,600.00
2018-05-01T07:47:00.311Z,612.00
2018-05-01T07:48:00.294Z,612.00
2018-05-01T07:49:00.372Z,616.00
2018-05-01T07:50:00.272Z,628.00
2018-05-01T07:51:00.254Z,624.00
2018-05-01T07:52:00.239Z,604.00
2018-05-01T07:53:00.226Z,628.00
2018-05-01T07:54:00.226Z,636.00
2018-05-01T07:55:00.198Z,644.00
2018-05-01T07:56:00.185Z,664.00
2018-05-01T07:57:00.172Z,680.00
2018-05-01T07:58:00.158Z,688.00
2018-05-01T07:59:00.145Z,700.00
2018-05-01T08:00:00.141Z,680.00
2018-05-01T08:01:00.118Z,688.00
2018-05-01T08:02:00.117Z,676.00
2018-05-01T08:03:00.091Z,684.00
2018-05-01T08:04:00.077Z,712.00
2018-05-01T08:05:00.072Z,748.00
2018-05-01T08:06:00.050Z,740.00
2018-05-01T08:07:00.118Z,724.00
2018-05-01T08:08:00.024Z,720.00
2018-05-01T08:09:00.008Z,712.00
2018-05-01T08:10:00.009Z,684.00
2018-05-01T08:10:59.981Z,704.00
2018-05-01T08:12:00.027Z,684.00
2018-05-01T08:12:59.953Z,664.00
2018-05-01T08:13:59.941Z,652.00
2018-05-01T08:14:59.927Z,648.00
2018-05-01T08:15:59.927Z,652.00
2018-05-01T08:16:59.898Z,648.00
2018-05-01T08:17:59.885Z,648.00
2018-05-01T08:18:59.872Z,616.00
2018-05-01T08:19:59.859Z,592.00
2018-05-01T08:20:59.843Z,500.00
2018-05-01T08:21:59.840Z,544.00
2018-05-01T08:22:59.819Z,544.00
2018-05-01T08:23:59.805Z,544.00
2018-05-01T08:24:59.791Z,104.00
2018-05-01T08:25:59.777Z,100.00
2018-05-01T08:26:59.775Z,104.00
2018-05-01T08:27:59.752Z,92.00
2018-05-01T08:28:59.738Z,92.00
2018-05-01T08:29:59.722Z,96.00
2018-05-01T08:30:59.709Z,112.00
2018-05-01T08:31:59.734Z,112.00
2018-05-01T08:32:59.682Z,112.00
2018-05-01T08:33:59.669Z,108.00
2018-05-01T08:34:59.656Z,104.00
2018-05-01T08:35:59.641Z,104.00
2018-05-01T08:36:59.634Z,96.00
2018-05-01T08:37:59.625Z,100.00
2018-05-01T08:38:59.601Z,96.00
2018-05-01T08:39:59.586Z,96.00
2018-05-01T08:40:59.574Z,72.00
2018-05-01T08:41:59.558Z,104.00
2018-05-01T08:42:59.546Z,88.00
2018-05-01T08:43:59.540Z,88.00
2018-05-01T08:44:59.520Z,104.00
2018-05-01T08:45:59.502Z,104.00
2018-05-01T08:46:59.488Z,88.00
2018-05-01T08:47:59.478Z,84.00
2018-05-01T08:48:59.470Z,108.00
2018-05-01T08:49:59.446Z,116.00
2018-05-01T08:50:59.432Z,124.00
2018-05-01T08:51:59.420Z,128.00
2018-05-01T08:52:59.407Z,132.00
2018-05-01T08:53:59.423Z,144.00
2018-05-01T08:54:59.383Z,136.00
2018-05-01T08:55:59.396Z,112.00
2018-05-01T08:56:59.350Z,104.00
2018-05-01T08:57:59.336Z,88.00
2018-05-01T08:58:59.323Z,76.00
2018-05-01T08:59:59.604Z,128.00
2018-05-01T09:00:59.295Z,132.00
2018-05-01T09:01:59.282Z,136.00
2018-05-01T09:02:59.274Z,152.00
2018-05-01T09:03:59.254Z,156.00
2018-05-01T09:04:59.240Z,148.00
2018-05-01T09:05:59.236Z,132.00
2018-05-01T09:06:59.213Z,144.00
2018-05-01T09:07:59.200Z,152.00
2018-05-01T09:08:59.185Z,164.00
2018-05-01T09:09:59.171Z,144.00
2018-05-01T09:10:59.167Z,156.00
2018-05-01T09:11:59.149Z,160.00
2018-05-01T09:12:59.130Z,164.00
2018-05-01T09:13:59.116Z,152.00
2018-05-01T09:14:59.102Z,156.00
2018-05-01T09:15:59.366Z,160.00
2018-05-01T09:16:59.133Z,164.00
2018-05-01T09:17:59.080Z,152.00
2018-05-01T09:18:59.048Z,160.00
2018-05-01T09:19:59.035Z,160.00
2018-05-01T09:20:59.020Z,176.00
2018-05-01T09:21:59.021Z,176.00
2018-05-01T09:22:58.996Z,184.00
2018-05-01T09:23:58.980Z,188.00
2018-05-01T09:24:58.965Z,140.00
2018-05-01T09:25:58.962Z,204.00
2018-05-01T09:26:58.938Z,172.00
2018-05-01T09:27:58.938Z,148.00
2018-05-01T09:28:58.911Z,216.00
2018-05-01T09:29:58.896Z,184.00
2018-05-01T09:30:58.883Z,168.00
2018-05-01T09:31:58.870Z,168.00
2018-05-01T09:32:58.869Z,216.00
2018-05-01T09:33:58.842Z,216.00
2018-05-01T09:34:58.829Z,176.00
2018-05-01T09:35:58.815Z,156.00
2018-05-01T09:36:58.801Z,168.00
2018-05-01T09:37:58.821Z,148.00
2018-05-01T09:38:58.775Z,204.00
2018-05-01T09:39:58.764Z,144.00
2018-05-01T09:40:58.747Z,68.00
2018-05-01T09:41:58.778Z,32.00
2018-05-01T09:42:58.721Z,32.00
2018-05-01T09:43:58.716Z,28.00
2018-05-01T09:44:58.692Z,24.00
2018-05-01T09:45:58.679Z,32.00
2018-05-01T09:46:58.665Z,24.00
2018-05-01T09:47:58.653Z,32.00
2018-05-01T09:48:58.647Z,20.00
2018-05-01T09:49:58.630Z,24.00
2018-05-01T09:50:58.610Z,20.00
2018-05-01T09:51:58.597Z,20.00
2018-05-01T09:52:58.583Z,20.00
2018-05-01T09:53:58.583Z,12.00
2018-05-01T09:54:58.556Z,4.00
2018-05-01T09:55:58.541Z,4.00
2018-05-01T09:56:58.528Z,4.00
2018-05-01T09:57:58.517Z,4.00
2018-05-01T09:58:58.516Z,4.00
2018-05-01T09:59:58.487Z,4.00
2018-05-01T10:00:58.473Z,4.00
2018-05-01T10:01:58.458Z,4.00
2018-05-01T10:02:58.453Z,4.00
2018-05-01T10:03:58.449Z,0.00
2018-05-01T10:04:58.418Z,0.00
2018-05-01T10:05:58.417Z,0.00
2018-05-01T10:06:58.395Z,0.00
2018-05-01T10:07:58.385Z,0.00
2018-05-01T10:08:58.364Z,4.00
2018-05-01T10:09:58.360Z,4.00
2018-05-01T10:10:58.336Z,0.00
2018-05-01T10:11:58.328Z,4.00
2018-05-01T10:12:58.309Z,4.00
2018-05-01T10:13:58.305Z,4.00
2018-05-01T10:14:58.291Z,0.00
2018-05-01T10:15:58.272Z,0.00
2018-05-01T10:16:58.253Z,0.00
2018-05-01T10:17:58.239Z,0.00
2018-05-01T10:18:58.252Z,0.00
2018-05-01T10:19:58.287Z,4.00
2018-05-01T10:20:58.232Z,4.00
2018-05-01T10:21:58.184Z,4.00
2018-05-01T10:22:58.170Z,4.00
2018-05-01T10:23:58.158Z,4.00
2018-05-01T10:24:58.199Z,4.00
2018-05-01T10:25:58.131Z,0.00
2018-05-01T10:26:58.208Z,4.00
2018-05-01T10:27:58.100Z,4.00
2018-05-01T10:28:58.089Z,0.00
2018-05-01T10:29:58.111Z,0.00
2018-05-01T10:30:58.074Z,0.00
2018-05-01T10:31:58.053Z,4.00
2018-05-01T10:32:58.034Z,4.00
2018-05-01T10:33:58.022Z,4.00
2018-05-01T10:34:58.017Z,4.00
2018-05-01T10:35:57.995Z,4.00
2018-05-01T10:36:57.985Z,68.00
2018-05-01T10:37:57.971Z,144.00
2018-05-01T10:38:58.098Z,140.00
2018-05-01T10:39:57.975Z,140.00
2018-05-01T10:40:57.927Z,140.00
2018-05-01T10:41:57.917Z,136.00
2018-05-01T10:42:57.901Z,124.00
2018-05-01T10:43:57.887Z,116.00
2018-05-01T10:44:57.872Z,132.00
2018-05-01T10:45:57.869Z,136.00
2018-05-01T10:46:57.845Z,136.00
2018-05-01T10:47:57.833Z,136.00
2018-05-01T10:48:57.822Z,132.00
2018-05-01T10:49:57.804Z,120.00
2018-05-01T10:50:58.053Z,132.00
2018-05-01T10:51:57.776Z,120.00
2018-05-01T10:52:57.763Z,140.00
2018-05-01T10:53:57.749Z,124.00
2018-05-01T10:54:57.736Z,116.00
2018-05-01T10:55:57.723Z,100.00
2018-05-01T10:56:57.719Z,124.00
2018-05-01T10:57:57.695Z,116.00
2018-05-01T10:58:57.682Z,140.00
2018-05-01T10:59:57.668Z,124.00
2018-05-01T11:00:57.656Z,140.00
2018-05-01T11:01:57.762Z,140.00
2018-05-01T11:02:57.625Z,132.00
2018-05-01T11:03:57.614Z,116.00
2018-05-01T11:04:57.598Z,116.00
2018-05-01T11:05:57.583Z,108.00
2018-05-01T11:06:57.570Z,100.00
2018-05-01T11:07:57.567Z,100.00
2018-05-01T11:08:57.540Z,100.00
2018-05-01T11:09:57.534Z,96.00
2018-05-01T11:10:57.514Z,96.00
2018-05-01T11:11:57.558Z,96.00
2018-05-01T11:12:57.501Z,100.00
2018-05-01T11:13:57.475Z,100.00
2018-05-01T11:14:57.456Z,100.00
2018-05-01T11:15:57.443Z,104.00
2018-05-01T11:16:57.429Z,92.00
2018-05-01T11:17:57.415Z,104.00
2018-05-01T11:18:57.409Z,100.00
2018-05-01T11:19:57.387Z,100.00
2018-05-01T11:20:57.371Z,96.00
2018-05-01T11:21:57.358Z,92.00
2018-05-01T11:22:57.343Z,88.00
2018-05-01T11:23:57.599Z,88.00
2018-05-01T11:24:57.314Z,84.00
2018-05-01T11:25:57.338Z,84.00
2018-05-01T11:26:57.285Z,84.00
2018-05-01T11:27:57.275Z,88.00
2018-05-01T11:28:57.256Z,88.00
2018-05-01T11:29:57.256Z,96.00
2018-05-01T11:30:57.230Z,92.00
2018-05-01T11:31:57.217Z,96.00
2018-05-01T11:32:57.203Z,108.00
2018-05-01T11:33:57.185Z,104.00
2018-05-01T11:34:57.186Z,108.00
2018-05-01T11:35:57.155Z,96.00
2018-05-01T11:36:57.141Z,104.00
2018-05-01T11:37:57.130Z,108.00
2018-05-01T11:38:57.112Z,108.00
2018-05-01T11:39:57.098Z,108.00
2018-05-01T11:40:57.097Z,112.00
2018-05-01T11:41:57.068Z,116.00
2018-05-01T11:42:57.051Z,112.00
2018-05-01T11:43:57.039Z,104.00
2018-05-01T11:44:57.084Z,104.00
2018-05-01T11:45:57.029Z,104.00
2018-05-01T11:46:56.995Z,104.00
2018-05-01T11:47:56.979Z,100.00
2018-05-01T11:48:56.965Z,100.00
2018-05-01T11:49:56.954Z,100.00
2018-05-01T11:50:56.935Z,100.00
2018-05-01T11:51:56.931Z,104.00
2018-05-01T11:52:56.908Z,104.00
2018-05-01T11:53:56.891Z,104.00
2018-05-01T11:54:56.876Z,116.00
2018-05-01T11:55:56.862Z,108.00
2018-05-01T11:56:56.865Z,108.00
2018-05-01T11:57:56.834Z,104.00
2018-05-01T11:58:56.816Z,108.00
2018-05-01T11:59:56.802Z,104.00
2018-05-01T12:00:56.785Z,100.00
2018-05-01T12:01:56.774Z,120.00
2018-05-01T12:02:56.767Z,132.00
2018-05-01T12:03:56.742Z,124.00
2018-05-01T12:04:56.727Z,120.00
2018-05-01T12:05:56.712Z,124.00
2018-05-01T12:06:56.699Z,132.00
2018-05-01T12:07:56.696Z,128.00
2018-05-01T12:08:56.669Z,116.00
2018-05-01T12:09:56.652Z,128.00
2018-05-01T12:10:56.686Z,136.00
2018-05-01T12:11:56.626Z,140.00
2018-05-01T12:12:56.609Z,140.00
2018-05-01T12:13:56.607Z,144.00
2018-05-01T12:14:56.579Z,140.00
2018-05-01T12:15:56.568Z,124.00
2018-05-01T12:16:56.585Z,140.00
2018-05-01T12:17:56.534Z,144.00
2018-05-01T12:18:56.550Z,148.00
2018-05-01T12:19:56.504Z,144.00
2018-05-01T12:20:56.489Z,148.00
2018-05-01T12:21:56.477Z,140.00
2018-05-01T12:22:56.465Z,144.00
2018-05-01T12:23:56.444Z,152.00
2018-05-01T12:24:56.439Z,140.00
2018-05-01T12:25:56.414Z,148.00
2018-05-01T12:26:56.402Z,140.00
2018-05-01T12:27:56.385Z,136.00
2018-05-01T12:28:56.370Z,132.00
2018-05-01T12:29:56.386Z,116.00
2018-05-01T12:30:56.340Z,120.00
2018-05-01T12:31:56.325Z,108.00
2018-05-01T12:32:56.310Z,104.00
2018-05-01T12:33:56.294Z,96.00
2018-05-01T12:34:56.328Z,88.00
2018-05-01T12:35:56.265Z,88.00
2018-05-01T12:36:56.390Z,88.00
2018-05-01T12:37:56.237Z,92.00
2018-05-01T12:38:56.222Z,104.00
2018-05-01T12:39:56.205Z,100.00
2018-05-01T12:40:56.204Z,104.00
2018-05-01T12:41:56.176Z,164.00
2018-05-01T12:42:56.166Z,168.00
2018-05-01T12:43:56.146Z,180.00
2018-05-01T12:44:56.130Z,180.00
2018-05-01T12:45:56.126Z,148.00
2018-05-01T12:46:56.102Z,112.00
2018-05-01T12:47:56.086Z,104.00
2018-05-01T12:48:56.071Z,108.00
2018-05-01T12:49:56.054Z,140.00
2018-05-01T12:50:56.052Z,124.00
2018-05-01T12:51:56.027Z,172.00
2018-05-01T12:52:56.011Z,168.00